sensor_id;sensor_type;location;lat;lon;timestamp;P1;durP1;ratioP1;P2;durP2;ratioP2
20476;SDS011;10397;50.948;11.092;2022-09-13T00:00:36;3.98;;;2.70;;
20476;SDS011;10397;50.948;11.092;2022-09-13T00:03:06;2.90;;;2.63;;
20476;SDS011;10397;50.948;11.092;2022-09-13T00:05:37;3.90;;;2.77;;
20476;SDS011;10397;50.948;11.092;2022-09-13T00:08:07;2.10;;;1.87;;
20476;SDS011;10397;50.948;11.092;2022-09-13T00:10:39;3.00;;;2.02;;
20476;SDS011;10397;50.948;11.092;2022-09-13T00:13:10;3.40;;;2.20;;
20476;SDS011;10397;50.948;11.092;2022-09-13T00:15:43;2.43;;;2.17;;
20476;SDS011;10397;50.948;11.092;2022-09-13T00:18:16;2.07;;;1.87;;
20476;SDS011;10397;50.948;11.092;2022-09-13T00:20:47;2.80;;;2.27;;
20476;SDS011;10397;50.948;11.092;2022-09-13T00:23:18;3.60;;;1.98;;
20476;SDS011;10397;50.948;11.092;2022-09-13T00:25:50;5.10;;;2.40;;
20476;SDS011;10397;50.948;11.092;2022-09-13T00:28:21;3.10;;;2.43;;
20476;SDS011;10397;50.948;11.092;2022-09-13T00:30:52;3.27;;;2.30;;
20476;SDS011;10397;50.948;11.092;2022-09-13T00:33:24;2.37;;;2.17;;
20476;SDS011;10397;50.948;11.092;2022-09-13T00:35:55;3.45;;;2.22;;
20476;SDS011;10397;50.948;11.092;2022-09-13T00:38:26;4.17;;;2.37;;
20476;SDS011;10397;50.948;11.092;2022-09-13T00:40:58;2.50;;;2.08;;
20476;SDS011;10397;50.948;11.092;2022-09-13T00:46:23;2.60;;;2.30;;
20476;SDS011;10397;50.948;11.092;2022-09-13T00:49:12;2.33;;;2.13;;
20476;SDS011;10397;50.948;11.092;2022-09-13T00:51:47;4.00;;;2.20;;
20476;SDS011;10397;50.948;11.092;2022-09-13T00:54:17;2.58;;;2.22;;
20476;SDS011;10397;50.948;11.092;2022-09-13T00:56:49;3.05;;;2.30;;
20476;SDS011;10397;50.948;11.092;2022-09-13T00:59:20;3.07;;;2.10;;
20476;SDS011;10397;50.948;11.092;2022-09-13T01:01:52;3.45;;;2.62;;
20476;SDS011;10397;50.948;11.092;2022-09-13T01:04:21;2.63;;;2.40;;
20476;SDS011;10397;50.948;11.092;2022-09-13T01:06:52;5.72;;;2.50;;
20476;SDS011;10397;50.948;11.092;2022-09-13T01:09:22;2.40;;;2.20;;
20476;SDS011;10397;50.948;11.092;2022-09-13T01:12:03;3.17;;;2.70;;
20476;SDS011;10397;50.948;11.092;2022-09-13T01:14:30;2.87;;;2.53;;
20476;SDS011;10397;50.948;11.092;2022-09-13T01:17:01;2.77;;;2.50;;
20476;SDS011;10397;50.948;11.092;2022-09-13T01:19:32;5.00;;;2.77;;
20476;SDS011;10397;50.948;11.092;2022-09-13T01:27:44;3.00;;;2.53;;
20476;SDS011;10397;50.948;11.092;2022-09-13T01:30:25;2.67;;;2.40;;
20476;SDS011;10397;50.948;11.092;2022-09-13T01:33:20;2.47;;;2.27;;
20476;SDS011;10397;50.948;11.092;2022-09-13T01:35:57;4.03;;;2.60;;
20476;SDS011;10397;50.948;11.092;2022-09-13T01:41:24;2.80;;;2.30;;
20476;SDS011;10397;50.948;11.092;2022-09-13T01:44:10;3.10;;;2.80;;
20476;SDS011;10397;50.948;11.092;2022-09-13T01:51:49;2.87;;;2.63;;
20476;SDS011;10397;50.948;11.092;2022-09-13T01:54:34;4.33;;;3.00;;
20476;SDS011;10397;50.948;11.092;2022-09-13T01:57:08;3.53;;;2.40;;
20476;SDS011;10397;50.948;11.092;2022-09-13T01:59:49;5.50;;;2.97;;
20476;SDS011;10397;50.948;11.092;2022-09-13T02:02:23;3.60;;;3.30;;
20476;SDS011;10397;50.948;11.092;2022-09-13T02:04:53;3.13;;;2.73;;
20476;SDS011;10397;50.948;11.092;2022-09-13T02:07:24;5.75;;;3.00;;
20476;SDS011;10397;50.948;11.092;2022-09-13T02:09:57;3.37;;;3.10;;
20476;SDS011;10397;50.948;11.092;2022-09-13T02:12:26;3.75;;;3.35;;
20476;SDS011;10397;50.948;11.092;2022-09-13T02:15:02;3.50;;;3.20;;
20476;SDS011;10397;50.948;11.092;2022-09-13T02:17:46;3.17;;;2.97;;
20476;SDS011;10397;50.948;11.092;2022-09-13T02:20:19;3.50;;;3.20;;
20476;SDS011;10397;50.948;11.092;2022-09-13T02:22:54;2.90;;;2.70;;
20476;SDS011;10397;50.948;11.092;2022-09-13T02:25:24;4.37;;;3.37;;
20476;SDS011;10397;50.948;11.092;2022-09-13T02:27:54;3.57;;;3.27;;
20476;SDS011;10397;50.948;11.092;2022-09-13T02:30:24;3.40;;;3.10;;
20476;SDS011;10397;50.948;11.092;2022-09-13T02:33:09;3.37;;;3.03;;
20476;SDS011;10397;50.948;11.092;2022-09-13T02:35:48;3.30;;;3.00;;
20476;SDS011;10397;50.948;11.092;2022-09-13T02:38:25;3.37;;;3.03;;
20476;SDS011;10397;50.948;11.092;2022-09-13T02:40:56;2.97;;;2.67;;
20476;SDS011;10397;50.948;11.092;2022-09-13T02:43:33;2.83;;;2.63;;
20476;SDS011;10397;50.948;11.092;2022-09-13T02:46:13;3.30;;;2.77;;
20476;SDS011;10397;50.948;11.092;2022-09-13T02:57:23;2.87;;;2.67;;
20476;SDS011;10397;50.948;11.092;2022-09-13T02:59:47;3.27;;;2.97;;
20476;SDS011;10397;50.948;11.092;2022-09-13T03:02:18;2.30;;;2.10;;
20476;SDS011;10397;50.948;11.092;2022-09-13T03:04:49;2.80;;;2.60;;
20476;SDS011;10397;50.948;11.092;2022-09-13T03:07:20;3.17;;;2.87;;
20476;SDS011;10397;50.948;11.092;2022-09-13T03:09:52;2.37;;;2.17;;
20476;SDS011;10397;50.948;11.092;2022-09-13T03:15:17;5.57;;;2.50;;
20476;SDS011;10397;50.948;11.092;2022-09-13T03:23:12;3.83;;;2.77;;
20476;SDS011;10397;50.948;11.092;2022-09-13T03:25:58;2.90;;;2.70;;
20476;SDS011;10397;50.948;11.092;2022-09-13T03:28:48;2.30;;;2.03;;
20476;SDS011;10397;50.948;11.092;2022-09-13T03:31:44;2.67;;;2.30;;
20476;SDS011;10397;50.948;11.092;2022-09-13T03:34:19;2.90;;;2.67;;
20476;SDS011;10397;50.948;11.092;2022-09-13T03:36:48;3.80;;;2.80;;
20476;SDS011;10397;50.948;11.092;2022-09-13T03:41:56;3.60;;;2.47;;
20476;SDS011;10397;50.948;11.092;2022-09-13T03:44:27;4.50;;;2.98;;
20476;SDS011;10397;50.948;11.092;2022-09-13T03:46:59;3.13;;;2.83;;
20476;SDS011;10397;50.948;11.092;2022-09-13T03:49:29;6.73;;;2.60;;
20476;SDS011;10397;50.948;11.092;2022-09-13T03:52:00;2.70;;;2.50;;
20476;SDS011;10397;50.948;11.092;2022-09-13T03:54:31;3.10;;;2.83;;
20476;SDS011;10397;50.948;11.092;2022-09-13T03:59:44;3.47;;;2.60;;
20476;SDS011;10397;50.948;11.092;2022-09-13T04:02:16;2.73;;;2.43;;
20476;SDS011;10397;50.948;11.092;2022-09-13T04:04:46;3.27;;;2.50;;
20476;SDS011;10397;50.948;11.092;2022-09-13T04:07:18;2.77;;;2.57;;
20476;SDS011;10397;50.948;11.092;2022-09-13T04:09:48;2.77;;;2.37;;
20476;SDS011;10397;50.948;11.092;2022-09-13T04:12:18;2.60;;;2.27;;
20476;SDS011;10397;50.948;11.092;2022-09-13T04:14:50;3.20;;;2.58;;
20476;SDS011;10397;50.948;11.092;2022-09-13T04:17:21;2.77;;;2.58;;
20476;SDS011;10397;50.948;11.092;2022-09-13T04:19:52;2.60;;;2.40;;
20476;SDS011;10397;50.948;11.092;2022-09-13T04:22:24;2.87;;;2.50;;
20476;SDS011;10397;50.948;11.092;2022-09-13T04:24:56;2.60;;;2.35;;
20476;SDS011;10397;50.948;11.092;2022-09-13T04:27:27;3.90;;;2.70;;
20476;SDS011;10397;50.948;11.092;2022-09-13T04:29:58;2.63;;;2.23;;
20476;SDS011;10397;50.948;11.092;2022-09-13T04:32:29;2.52;;;2.12;;
20476;SDS011;10397;50.948;11.092;2022-09-13T04:35:00;2.50;;;2.30;;
20476;SDS011;10397;50.948;11.092;2022-09-13T04:37:31;4.33;;;2.73;;
20476;SDS011;10397;50.948;11.092;2022-09-13T04:40:01;4.87;;;2.70;;
20476;SDS011;10397;50.948;11.092;2022-09-13T04:42:33;2.30;;;2.10;;
20476;SDS011;10397;50.948;11.092;2022-09-13T04:45:04;4.67;;;2.58;;
20476;SDS011;10397;50.948;11.092;2022-09-13T04:47:34;2.97;;;2.37;;
20476;SDS011;10397;50.948;11.092;2022-09-13T04:50:05;4.43;;;2.33;;
20476;SDS011;10397;50.948;11.092;2022-09-13T04:52:36;2.77;;;2.52;;
20476;SDS011;10397;50.948;11.092;2022-09-13T04:55:08;2.10;;;1.90;;
20476;SDS011;10397;50.948;11.092;2022-09-13T04:57:40;2.90;;;2.60;;
20476;SDS011;10397;50.948;11.092;2022-09-13T05:00:10;2.55;;;2.35;;
20476;SDS011;10397;50.948;11.092;2022-09-13T05:02:41;3.10;;;2.30;;
20476;SDS011;10397;50.948;11.092;2022-09-13T05:05:12;2.27;;;2.07;;
20476;SDS011;10397;50.948;11.092;2022-09-13T05:07:43;3.52;;;2.15;;
20476;SDS011;10397;50.948;11.092;2022-09-13T05:10:14;3.15;;;2.52;;
20476;SDS011;10397;50.948;11.092;2022-09-13T05:12:46;2.40;;;2.20;;
20476;SDS011;10397;50.948;11.092;2022-09-13T05:15:17;2.22;;;1.90;;
20476;SDS011;10397;50.948;11.092;2022-09-13T05:17:49;2.20;;;2.00;;
20476;SDS011;10397;50.948;11.092;2022-09-13T05:20:21;2.45;;;1.82;;
20476;SDS011;10397;50.948;11.092;2022-09-13T05:22:54;4.05;;;2.27;;
20476;SDS011;10397;50.948;11.092;2022-09-13T05:25:24;2.42;;;2.22;;
20476;SDS011;10397;50.948;11.092;2022-09-13T05:27:55;2.43;;;2.00;;
20476;SDS011;10397;50.948;11.092;2022-09-13T05:30:26;3.40;;;2.07;;
20476;SDS011;10397;50.948;11.092;2022-09-13T05:32:58;3.00;;;2.33;;
20476;SDS011;10397;50.948;11.092;2022-09-13T05:35:29;3.12;;;2.10;;
20476;SDS011;10397;50.948;11.092;2022-09-13T05:38:00;4.00;;;1.73;;
20476;SDS011;10397;50.948;11.092;2022-09-13T05:40:31;2.97;;;1.90;;
20476;SDS011;10397;50.948;11.092;2022-09-13T05:43:02;2.30;;;2.10;;
20476;SDS011;10397;50.948;11.092;2022-09-13T05:45:34;7.50;;;2.87;;
20476;SDS011;10397;50.948;11.092;2022-09-13T05:48:05;2.63;;;2.10;;
20476;SDS011;10397;50.948;11.092;2022-09-13T05:50:36;2.06;;;1.92;;
20476;SDS011;10397;50.948;11.092;2022-09-13T05:53:08;2.62;;;1.98;;
20476;SDS011;10397;50.948;11.092;2022-09-13T05:55:39;2.20;;;1.90;;
20476;SDS011;10397;50.948;11.092;2022-09-13T05:58:11;3.33;;;1.60;;
20476;SDS011;10397;50.948;11.092;2022-09-13T06:00:42;1.90;;;1.57;;
20476;SDS011;10397;50.948;11.092;2022-09-13T06:03:13;2.00;;;1.47;;
20476;SDS011;10397;50.948;11.092;2022-09-13T06:05:45;2.27;;;1.52;;
20476;SDS011;10397;50.948;11.092;2022-09-13T06:08:16;3.80;;;1.40;;
20476;SDS011;10397;50.948;11.092;2022-09-13T06:10:58;1.62;;;1.52;;
20476;SDS011;10397;50.948;11.092;2022-09-13T06:13:27;3.33;;;1.60;;
20476;SDS011;10397;50.948;11.092;2022-09-13T06:15:59;1.98;;;1.57;;
20476;SDS011;10397;50.948;11.092;2022-09-13T06:18:29;1.80;;;1.45;;
20476;SDS011;10397;50.948;11.092;2022-09-13T06:21:01;1.80;;;1.60;;
20476;SDS011;10397;50.948;11.092;2022-09-13T06:23:31;3.95;;;1.52;;
20476;SDS011;10397;50.948;11.092;2022-09-13T06:26:03;2.30;;;1.85;;
20476;SDS011;10397;50.948;11.092;2022-09-13T06:28:36;2.30;;;1.80;;
20476;SDS011;10397;50.948;11.092;2022-09-13T06:31:08;3.33;;;1.62;;
20476;SDS011;10397;50.948;11.092;2022-09-13T06:33:41;2.20;;;1.67;;
20476;SDS011;10397;50.948;11.092;2022-09-13T06:36:12;2.00;;;1.37;;
20476;SDS011;10397;50.948;11.092;2022-09-13T06:38:42;1.97;;;1.70;;
20476;SDS011;10397;50.948;11.092;2022-09-13T06:41:14;1.40;;;1.30;;
20476;SDS011;10397;50.948;11.092;2022-09-13T06:43:46;1.77;;;1.30;;
20476;SDS011;10397;50.948;11.092;2022-09-13T06:46:17;6.65;;;1.65;;
20476;SDS011;10397;50.948;11.092;2022-09-13T06:48:48;3.50;;;1.33;;
20476;SDS011;10397;50.948;11.092;2022-09-13T06:51:20;1.60;;;1.32;;
20476;SDS011;10397;50.948;11.092;2022-09-13T06:53:50;1.70;;;1.45;;
20476;SDS011;10397;50.948;11.092;2022-09-13T06:56:24;4.40;;;1.17;;
20476;SDS011;10397;50.948;11.092;2022-09-13T06:58:54;4.75;;;1.60;;
20476;SDS011;10397;50.948;11.092;2022-09-13T07:01:24;1.65;;;1.20;;
20476;SDS011;10397;50.948;11.092;2022-09-13T07:03:55;3.65;;;1.42;;
20476;SDS011;10397;50.948;11.092;2022-09-13T07:06:26;1.40;;;1.30;;
20476;SDS011;10397;50.948;11.092;2022-09-13T07:08:57;4.53;;;1.30;;
20476;SDS011;10397;50.948;11.092;2022-09-13T07:11:34;5.70;;;1.40;;
20476;SDS011;10397;50.948;11.092;2022-09-13T07:14:03;4.37;;;2.10;;
20476;SDS011;10397;50.948;11.092;2022-09-13T07:16:35;2.60;;;2.20;;
20476;SDS011;10397;50.948;11.092;2022-09-13T07:19:06;3.40;;;2.17;;
20476;SDS011;10397;50.948;11.092;2022-09-13T07:21:36;3.98;;;2.58;;
20476;SDS011;10397;50.948;11.092;2022-09-13T07:24:07;2.40;;;2.20;;
20476;SDS011;10397;50.948;11.092;2022-09-13T07:26:38;2.72;;;2.40;;
20476;SDS011;10397;50.948;11.092;2022-09-13T07:29:11;6.42;;;2.83;;
20476;SDS011;10397;50.948;11.092;2022-09-13T07:31:44;3.77;;;2.73;;
20476;SDS011;10397;50.948;11.092;2022-09-13T07:34:15;4.53;;;2.60;;
20476;SDS011;10397;50.948;11.092;2022-09-13T07:36:47;4.80;;;3.50;;
20476;SDS011;10397;50.948;11.092;2022-09-13T07:39:18;3.40;;;2.60;;
20476;SDS011;10397;50.948;11.092;2022-09-13T07:41:50;3.02;;;2.83;;
20476;SDS011;10397;50.948;11.092;2022-09-13T07:44:19;4.87;;;3.23;;
20476;SDS011;10397;50.948;11.092;2022-09-13T07:46:51;3.10;;;2.63;;
20476;SDS011;10397;50.948;11.092;2022-09-13T07:49:22;5.83;;;2.92;;
20476;SDS011;10397;50.948;11.092;2022-09-13T07:51:53;17.57;;;3.17;;
20476;SDS011;10397;50.948;11.092;2022-09-13T07:54:25;2.75;;;1.92;;
20476;SDS011;10397;50.948;11.092;2022-09-13T07:56:55;3.77;;;1.50;;
20476;SDS011;10397;50.948;11.092;2022-09-13T07:59:27;2.70;;;1.27;;
20476;SDS011;10397;50.948;11.092;2022-09-13T08:01:58;3.75;;;1.85;;
20476;SDS011;10397;50.948;11.092;2022-09-13T08:04:30;1.80;;;1.15;;
20476;SDS011;10397;50.948;11.092;2022-09-13T08:07:02;2.22;;;1.32;;
20476;SDS011;10397;50.948;11.092;2022-09-13T08:09:32;3.73;;;1.53;;
20476;SDS011;10397;50.948;11.092;2022-09-13T08:12:04;6.13;;;1.50;;
20476;SDS011;10397;50.948;11.092;2022-09-13T08:14:35;2.40;;;1.40;;
20476;SDS011;10397;50.948;11.092;2022-09-13T08:17:06;1.20;;;0.95;;
20476;SDS011;10397;50.948;11.092;2022-09-13T08:19:37;1.98;;;1.32;;
20476;SDS011;10397;50.948;11.092;2022-09-13T08:22:09;3.35;;;1.10;;
20476;SDS011;10397;50.948;11.092;2022-09-13T08:24:41;5.90;;;1.30;;
20476;SDS011;10397;50.948;11.092;2022-09-13T08:27:12;1.80;;;1.20;;
20476;SDS011;10397;50.948;11.092;2022-09-13T08:29:44;3.25;;;1.37;;
20476;SDS011;10397;50.948;11.092;2022-09-13T08:32:16;2.62;;;1.10;;
20476;SDS011;10397;50.948;11.092;2022-09-13T08:34:48;2.30;;;1.40;;
20476;SDS011;10397;50.948;11.092;2022-09-13T08:37:19;2.15;;;1.20;;
20476;SDS011;10397;50.948;11.092;2022-09-13T08:39:51;2.15;;;1.02;;
20476;SDS011;10397;50.948;11.092;2022-09-13T08:45:14;4.53;;;1.20;;
20476;SDS011;10397;50.948;11.092;2022-09-13T08:47:46;2.10;;;1.20;;
20476;SDS011;10397;50.948;11.092;2022-09-13T08:52:57;2.10;;;0.90;;
20476;SDS011;10397;50.948;11.092;2022-09-13T09:01:06;4.90;;;1.27;;
20476;SDS011;10397;50.948;11.092;2022-09-13T09:03:40;1.55;;;1.20;;
20476;SDS011;10397;50.948;11.092;2022-09-13T09:06:19;2.40;;;0.97;;
20476;SDS011;10397;50.948;11.092;2022-09-13T09:08:58;3.47;;;1.37;;
20476;SDS011;10397;50.948;11.092;2022-09-13T09:11:33;3.23;;;1.20;;
20476;SDS011;10397;50.948;11.092;2022-09-13T09:14:02;3.43;;;1.10;;
20476;SDS011;10397;50.948;11.092;2022-09-13T09:16:39;2.83;;;1.05;;
20476;SDS011;10397;50.948;11.092;2022-09-13T09:19:12;6.03;;;1.20;;
20476;SDS011;10397;50.948;11.092;2022-09-13T09:21:48;5.00;;;1.07;;
20476;SDS011;10397;50.948;11.092;2022-09-13T09:24:20;2.67;;;0.93;;
20476;SDS011;10397;50.948;11.092;2022-09-13T09:26:52;1.77;;;1.27;;
20476;SDS011;10397;50.948;11.092;2022-09-13T09:29:23;3.27;;;1.02;;
20476;SDS011;10397;50.948;11.092;2022-09-13T09:31:59;1.40;;;0.90;;
20476;SDS011;10397;50.948;11.092;2022-09-13T09:34:36;2.47;;;1.10;;
20476;SDS011;10397;50.948;11.092;2022-09-13T09:37:07;2.80;;;0.97;;
20476;SDS011;10397;50.948;11.092;2022-09-13T09:39:37;2.83;;;1.00;;
20476;SDS011;10397;50.948;11.092;2022-09-13T09:42:12;1.62;;;0.80;;
20476;SDS011;10397;50.948;11.092;2022-09-13T09:44:42;0.70;;;0.70;;
20476;SDS011;10397;50.948;11.092;2022-09-13T09:47:15;2.23;;;0.80;;
20476;SDS011;10397;50.948;11.092;2022-09-13T09:49:52;1.20;;;0.90;;
20476;SDS011;10397;50.948;11.092;2022-09-13T09:52:50;1.50;;;1.00;;
20476;SDS011;10397;50.948;11.092;2022-09-13T09:55:24;2.57;;;0.80;;
20476;SDS011;10397;50.948;11.092;2022-09-13T09:57:55;4.60;;;0.80;;
20476;SDS011;10397;50.948;11.092;2022-09-13T10:00:28;1.67;;;1.00;;
20476;SDS011;10397;50.948;11.092;2022-09-13T10:02:59;0.90;;;0.78;;
20476;SDS011;10397;50.948;11.092;2022-09-13T10:05:29;0.80;;;0.70;;
20476;SDS011;10397;50.948;11.092;2022-09-13T10:08:01;1.37;;;0.90;;
20476;SDS011;10397;50.948;11.092;2022-09-13T10:10:42;2.60;;;0.63;;
20476;SDS011;10397;50.948;11.092;2022-09-13T10:13:17;0.93;;;0.63;;
20476;SDS011;10397;50.948;11.092;2022-09-13T10:15:56;1.10;;;0.90;;
20476;SDS011;10397;50.948;11.092;2022-09-13T10:18:29;0.97;;;0.73;;
20476;SDS011;10397;50.948;11.092;2022-09-13T10:21:09;0.85;;;0.75;;
20476;SDS011;10397;50.948;11.092;2022-09-13T10:23:36;2.90;;;0.80;;
20476;SDS011;10397;50.948;11.092;2022-09-13T10:26:09;1.10;;;0.70;;
20476;SDS011;10397;50.948;11.092;2022-09-13T10:31:12;3.63;;;1.07;;
20476;SDS011;10397;50.948;11.092;2022-09-13T10:33:51;3.13;;;0.60;;
20476;SDS011;10397;50.948;11.092;2022-09-13T10:36:25;1.37;;;0.60;;
20476;SDS011;10397;50.948;11.092;2022-09-13T10:39:02;1.35;;;0.60;;
20476;SDS011;10397;50.948;11.092;2022-09-13T10:41:32;2.50;;;0.57;;
20476;SDS011;10397;50.948;11.092;2022-09-13T10:44:03;1.67;;;0.88;;
20476;SDS011;10397;50.948;11.092;2022-09-13T10:46:34;0.93;;;0.60;;
20476;SDS011;10397;50.948;11.092;2022-09-13T10:49:04;1.10;;;0.60;;
20476;SDS011;10397;50.948;11.092;2022-09-13T10:51:35;1.17;;;0.60;;
20476;SDS011;10397;50.948;11.092;2022-09-13T10:54:17;1.52;;;0.78;;
20476;SDS011;10397;50.948;11.092;2022-09-13T10:56:49;2.50;;;0.80;;
20476;SDS011;10397;50.948;11.092;2022-09-13T10:59:21;3.80;;;0.70;;
20476;SDS011;10397;50.948;11.092;2022-09-13T11:01:56;0.90;;;0.60;;
20476;SDS011;10397;50.948;11.092;2022-09-13T11:07:43;2.57;;;0.53;;
20476;SDS011;10397;50.948;11.092;2022-09-13T11:10:16;1.93;;;0.60;;
20476;SDS011;10397;50.948;11.092;2022-09-13T11:12:46;1.67;;;0.82;;
20476;SDS011;10397;50.948;11.092;2022-09-13T11:15:32;1.30;;;0.80;;
20476;SDS011;10397;50.948;11.092;2022-09-13T11:18:12;0.80;;;0.70;;
20476;SDS011;10397;50.948;11.092;2022-09-13T11:33:00;1.53;;;0.70;;
20476;SDS011;10397;50.948;11.092;2022-09-13T11:35:15;0.53;;;0.50;;
20476;SDS011;10397;50.948;11.092;2022-09-13T11:39:01;1.10;;;0.50;;
20476;SDS011;10397;50.948;11.092;2022-09-13T11:40:48;2.50;;;0.57;;
20476;SDS011;10397;50.948;11.092;2022-09-13T11:54:55;1.50;;;0.63;;
20476;SDS011;10397;50.948;11.092;2022-09-13T11:57:41;1.20;;;0.40;;
20476;SDS011;10397;50.948;11.092;2022-09-13T12:00:20;2.33;;;0.47;;
20476;SDS011;10397;50.948;11.092;2022-09-13T12:03:08;1.20;;;0.40;;
20476;SDS011;10397;50.948;11.092;2022-09-13T12:05:45;1.20;;;0.40;;
20476;SDS011;10397;50.948;11.092;2022-09-13T12:08:14;3.55;;;0.35;;
20476;SDS011;10397;50.948;11.092;2022-09-13T12:10:50;2.10;;;0.40;;
20476;SDS011;10397;50.948;11.092;2022-09-13T12:13:25;7.57;;;0.20;;
20476;SDS011;10397;50.948;11.092;2022-09-13T12:15:58;1.30;;;0.30;;
20476;SDS011;10397;50.948;11.092;2022-09-13T12:18:28;0.98;;;0.20;;
20476;SDS011;10397;50.948;11.092;2022-09-13T12:21:05;0.23;;;0.20;;
20476;SDS011;10397;50.948;11.092;2022-09-13T12:23:35;0.57;;;0.20;;
20476;SDS011;10397;50.948;11.092;2022-09-13T12:26:29;0.50;;;0.20;;
20476;SDS011;10397;50.948;11.092;2022-09-13T12:31:44;1.73;;;0.30;;
20476;SDS011;10397;50.948;11.092;2022-09-13T12:45:18;1.80;;;0.30;;
20476;SDS011;10397;50.948;11.092;2022-09-13T12:53:16;0.80;;;0.30;;
20476;SDS011;10397;50.948;11.092;2022-09-13T12:55:59;1.23;;;0.30;;
20476;SDS011;10397;50.948;11.092;2022-09-13T12:58:33;2.30;;;0.30;;
20476;SDS011;10397;50.948;11.092;2022-09-13T13:01:05;2.72;;;0.20;;
20476;SDS011;10397;50.948;11.092;2022-09-13T13:03:47;1.07;;;0.27;;
20476;SDS011;10397;50.948;11.092;2022-09-13T13:06:58;0.60;;;0.20;;
20476;SDS011;10397;50.948;11.092;2022-09-13T13:08:54;0.77;;;0.33;;
20476;SDS011;10397;50.948;11.092;2022-09-13T13:11:27;2.65;;;0.40;;
20476;SDS011;10397;50.948;11.092;2022-09-13T13:13:58;0.60;;;0.17;;
20476;SDS011;10397;50.948;11.092;2022-09-13T13:16:29;1.70;;;0.40;;
20476;SDS011;10397;50.948;11.092;2022-09-13T13:19:03;1.33;;;0.30;;
20476;SDS011;10397;50.948;11.092;2022-09-13T13:26:49;2.70;;;0.50;;
20476;SDS011;10397;50.948;11.092;2022-09-13T13:29:28;0.50;;;0.40;;
20476;SDS011;10397;50.948;11.092;2022-09-13T13:34:36;0.57;;;0.30;;
20476;SDS011;10397;50.948;11.092;2022-09-13T13:39:48;2.50;;;0.50;;
20476;SDS011;10397;50.948;11.092;2022-09-13T13:42:22;0.50;;;0.40;;
20476;SDS011;10397;50.948;11.092;2022-09-13T13:50:13;2.75;;;0.30;;
20476;SDS011;10397;50.948;11.092;2022-09-13T13:55:40;0.70;;;0.50;;
20476;SDS011;10397;50.948;11.092;2022-09-13T14:00:49;0.60;;;0.30;;
20476;SDS011;10397;50.948;11.092;2022-09-13T14:09:30;1.00;;;0.50;;
20476;SDS011;10397;50.948;11.092;2022-09-13T14:12:24;1.00;;;0.70;;
20476;SDS011;10397;50.948;11.092;2022-09-13T14:14:54;4.30;;;0.90;;
20476;SDS011;10397;50.948;11.092;2022-09-13T14:19:58;3.23;;;0.90;;
20476;SDS011;10397;50.948;11.092;2022-09-13T14:22:28;2.67;;;0.90;;
20476;SDS011;10397;50.948;11.092;2022-09-13T14:27:49;2.73;;;0.80;;
20476;SDS011;10397;50.948;11.092;2022-09-13T14:30:23;1.65;;;0.65;;
20476;SDS011;10397;50.948;11.092;2022-09-13T14:32:54;1.33;;;0.90;;
20476;SDS011;10397;50.948;11.092;2022-09-13T14:35:28;1.80;;;0.88;;
20476;SDS011;10397;50.948;11.092;2022-09-13T14:38:21;3.60;;;0.80;;
20476;SDS011;10397;50.948;11.092;2022-09-13T14:40:39;1.43;;;0.73;;
20476;SDS011;10397;50.948;11.092;2022-09-13T14:43:15;0.70;;;0.62;;
20476;SDS011;10397;50.948;11.092;2022-09-13T14:45:45;3.17;;;0.60;;
20476;SDS011;10397;50.948;11.092;2022-09-13T14:48:17;0.80;;;0.80;;
20476;SDS011;10397;50.948;11.092;2022-09-13T14:50:47;2.20;;;0.70;;
20476;SDS011;10397;50.948;11.092;2022-09-13T14:53:20;0.60;;;0.57;;
20476;SDS011;10397;50.948;11.092;2022-09-13T14:55:51;2.35;;;0.70;;
20476;SDS011;10397;50.948;11.092;2022-09-13T14:58:23;1.40;;;0.85;;
20476;SDS011;10397;50.948;11.092;2022-09-13T15:01:07;0.62;;;0.60;;
20476;SDS011;10397;50.948;11.092;2022-09-13T15:03:39;0.80;;;0.60;;
20476;SDS011;10397;50.948;11.092;2022-09-13T15:06:18;1.60;;;0.70;;
20476;SDS011;10397;50.948;11.092;2022-09-13T15:08:41;2.70;;;0.68;;
20476;SDS011;10397;50.948;11.092;2022-09-13T15:11:14;2.15;;;0.70;;
20476;SDS011;10397;50.948;11.092;2022-09-13T15:13:45;1.33;;;0.90;;
20476;SDS011;10397;50.948;11.092;2022-09-13T15:16:27;3.70;;;0.78;;
20476;SDS011;10397;50.948;11.092;2022-09-13T15:19:15;1.57;;;0.70;;
20476;SDS011;10397;50.948;11.092;2022-09-13T15:21:44;2.87;;;0.90;;
20476;SDS011;10397;50.948;11.092;2022-09-13T15:24:26;0.90;;;0.60;;
20476;SDS011;10397;50.948;11.092;2022-09-13T15:27:02;1.30;;;0.77;;
20476;SDS011;10397;50.948;11.092;2022-09-13T15:29:32;1.20;;;0.90;;
20476;SDS011;10397;50.948;11.092;2022-09-13T15:32:03;2.55;;;0.80;;
20476;SDS011;10397;50.948;11.092;2022-09-13T15:34:33;3.90;;;0.97;;
20476;SDS011;10397;50.948;11.092;2022-09-13T15:37:07;3.20;;;0.60;;
20476;SDS011;10397;50.948;11.092;2022-09-13T15:39:41;1.43;;;0.60;;
20476;SDS011;10397;50.948;11.092;2022-09-13T15:42:11;0.93;;;0.50;;
20476;SDS011;10397;50.948;11.092;2022-09-13T15:44:42;3.08;;;0.70;;
20476;SDS011;10397;50.948;11.092;2022-09-13T15:47:17;0.85;;;0.50;;
20476;SDS011;10397;50.948;11.092;2022-09-13T15:49:47;1.90;;;0.50;;
20476;SDS011;10397;50.948;11.092;2022-09-13T15:52:18;0.67;;;0.50;;
20476;SDS011;10397;50.948;11.092;2022-09-13T15:54:48;3.33;;;0.80;;
20476;SDS011;10397;50.948;11.092;2022-09-13T15:57:26;0.68;;;0.50;;
20476;SDS011;10397;50.948;11.092;2022-09-13T15:59:52;1.07;;;0.50;;
20476;SDS011;10397;50.948;11.092;2022-09-13T16:02:27;1.27;;;0.50;;
20476;SDS011;10397;50.948;11.092;2022-09-13T16:04:54;1.07;;;0.57;;
20476;SDS011;10397;50.948;11.092;2022-09-13T16:07:25;0.80;;;0.40;;
20476;SDS011;10397;50.948;11.092;2022-09-13T16:09:56;0.50;;;0.43;;
20476;SDS011;10397;50.948;11.092;2022-09-13T16:12:27;1.45;;;0.55;;
20476;SDS011;10397;50.948;11.092;2022-09-13T16:14:58;5.75;;;0.93;;
20476;SDS011;10397;50.948;11.092;2022-09-13T16:17:30;1.40;;;0.50;;
20476;SDS011;10397;50.948;11.092;2022-09-13T16:20:02;3.40;;;0.55;;
20476;SDS011;10397;50.948;11.092;2022-09-13T16:22:32;1.20;;;0.57;;
20476;SDS011;10397;50.948;11.092;2022-09-13T16:25:03;2.35;;;0.70;;
20476;SDS011;10397;50.948;11.092;2022-09-13T16:27:34;2.02;;;0.70;;
20476;SDS011;10397;50.948;11.092;2022-09-13T16:30:06;2.67;;;0.65;;
20476;SDS011;10397;50.948;11.092;2022-09-13T16:32:37;4.10;;;0.70;;
20476;SDS011;10397;50.948;11.092;2022-09-13T16:35:09;1.20;;;0.90;;
20476;SDS011;10397;50.948;11.092;2022-09-13T16:37:39;1.77;;;1.20;;
20476;SDS011;10397;50.948;11.092;2022-09-13T16:40:10;2.98;;;1.00;;
20476;SDS011;10397;50.948;11.092;2022-09-13T16:42:41;2.55;;;1.10;;
20476;SDS011;10397;50.948;11.092;2022-09-13T16:45:13;5.92;;;1.65;;
20476;SDS011;10397;50.948;11.092;2022-09-13T16:47:44;4.00;;;1.47;;
20476;SDS011;10397;50.948;11.092;2022-09-13T16:50:16;1.30;;;1.20;;
20476;SDS011;10397;50.948;11.092;2022-09-13T16:52:46;3.10;;;1.30;;
20476;SDS011;10397;50.948;11.092;2022-09-13T16:55:18;1.40;;;1.20;;
20476;SDS011;10397;50.948;11.092;2022-09-13T16:57:49;1.65;;;1.10;;
20476;SDS011;10397;50.948;11.092;2022-09-13T17:00:21;2.95;;;1.55;;
20476;SDS011;10397;50.948;11.092;2022-09-13T17:02:52;2.05;;;1.22;;
20476;SDS011;10397;50.948;11.092;2022-09-13T17:05:23;1.50;;;1.40;;
20476;SDS011;10397;50.948;11.092;2022-09-13T17:07:54;1.60;;;1.30;;
20476;SDS011;10397;50.948;11.092;2022-09-13T17:10:26;4.33;;;1.37;;
20476;SDS011;10397;50.948;11.092;2022-09-13T17:12:57;1.80;;;1.25;;
20476;SDS011;10397;50.948;11.092;2022-09-13T17:15:28;2.10;;;1.52;;
20476;SDS011;10397;50.948;11.092;2022-09-13T17:18:00;3.37;;;1.10;;